sensor_id;sensor_type;location;lat;lon;timestamp;temperature;humidity
63802;DHT22;49949;43.060;25.624;2022-07-29T00:02:10;19.70;99.90
63802;DHT22;49949;43.060;25.624;2022-07-29T00:04:36;19.70;99.90
63802;DHT22;49949;43.060;25.624;2022-07-29T00:07:02;19.60;99.90
63802;DHT22;49949;43.060;25.624;2022-07-29T00:09:28;18.70;99.90
63802;DHT22;49949;43.060;25.624;2022-07-29T00:11:55;19.30;99.90
63802;DHT22;49949;43.060;25.624;2022-07-29T00:14:22;19.50;99.90
63802;DHT22;49949;43.060;25.624;2022-07-29T00:16:47;19.60;99.90
63802;DHT22;49949;43.060;25.624;2022-07-29T00:19:13;19.40;99.90
63802;DHT22;49949;43.060;25.624;2022-07-29T00:21:39;19.40;99.90
63802;DHT22;49949;43.060;25.624;2022-07-29T00:24:05;19.40;99.90
63802;DHT22;49949;43.060;25.624;2022-07-29T00:26:30;19.40;99.90
63802;DHT22;49949;43.060;25.624;2022-07-29T00:29:01;19.40;99.90
63802;DHT22;49949;43.060;25.624;2022-07-29T00:31:27;19.30;99.90
63802;DHT22;49949;43.060;25.624;2022-07-29T00:33:54;19.40;99.90
63802;DHT22;49949;43.060;25.624;2022-07-29T00:36:20;19.30;99.90
63802;DHT22;49949;43.060;25.624;2022-07-29T00:38:50;19.30;99.90
63802;DHT22;49949;43.060;25.624;2022-07-29T00:41:17;19.30;99.90
63802;DHT22;49949;43.060;25.624;2022-07-29T00:43:43;19.30;99.90
63802;DHT22;49949;43.060;25.624;2022-07-29T00:46:09;19.20;99.90
63802;DHT22;49949;43.060;25.624;2022-07-29T00:48:35;19.10;99.90
63802;DHT22;49949;43.060;25.624;2022-07-29T00:51:02;19.20;99.90
63802;DHT22;49949;43.060;25.624;2022-07-29T00:53:30;19.10;99.90
63802;DHT22;49949;43.060;25.624;2022-07-29T00:55:57;19.10;99.90
63802;DHT22;49949;43.060;25.624;2022-07-29T00:58:23;19.10;99.90
63802;DHT22;49949;43.060;25.624;2022-07-29T01:00:49;19.10;99.90
63802;DHT22;49949;43.060;25.624;2022-07-29T01:03:15;17.80;99.90
63802;DHT22;49949;43.060;25.624;2022-07-29T01:05:43;19.00;99.90
63802;DHT22;49949;43.060;25.624;2022-07-29T01:08:12;19.50;99.90
63802;DHT22;49949;43.060;25.624;2022-07-29T01:10:38;19.10;99.90
63802;DHT22;49949;43.060;25.624;2022-07-29T01:13:05;19.10;99.90
63802;DHT22;49949;43.060;25.624;2022-07-29T01:15:34;19.10;99.90
63802;DHT22;49949;43.060;25.624;2022-07-29T01:18:16;19.00;99.90
63802;DHT22;49949;43.060;25.624;2022-07-29T01:29:12;19.00;99.90
63802;DHT22;49949;43.060;25.624;2022-07-29T01:31:52;19.00;99.90
63802;DHT22;49949;43.060;25.624;2022-07-29T01:34:27;18.90;99.90
63802;DHT22;49949;43.060;25.624;2022-07-29T01:39:39;18.70;99.90
63802;DHT22;49949;43.060;25.624;2022-07-29T01:42:34;18.70;99.90
63802;DHT22;49949;43.060;25.624;2022-07-29T01:45:20;18.70;99.90
63802;DHT22;49949;43.060;25.624;2022-07-29T01:48:05;18.70;99.90
63802;DHT22;49949;43.060;25.624;2022-07-29T01:50:54;18.80;99.90
63802;DHT22;49949;43.060;25.624;2022-07-29T01:53:35;18.80;99.90
63802;DHT22;49949;43.060;25.624;2022-07-29T01:56:03;20.20;99.90
63802;DHT22;49949;43.060;25.624;2022-07-29T01:58:31;18.80;99.90
63802;DHT22;49949;43.060;25.624;2022-07-29T02:00:59;18.70;99.90
63802;DHT22;49949;43.060;25.624;2022-07-29T02:03:27;18.70;99.90
63802;DHT22;49949;43.060;25.624;2022-07-29T02:05:53;18.60;99.90
63802;DHT22;49949;43.060;25.624;2022-07-29T02:08:22;18.60;99.90
63802;DHT22;49949;43.060;25.624;2022-07-29T02:10:48;18.60;99.90
63802;DHT22;49949;43.060;25.624;2022-07-29T02:13:16;18.60;99.90
63802;DHT22;49949;43.060;25.624;2022-07-29T02:15:44;18.60;99.90
63802;DHT22;49949;43.060;25.624;2022-07-29T02:18:17;18.50;99.90
63802;DHT22;49949;43.060;25.624;2022-07-29T02:20:48;18.50;99.90
63802;DHT22;49949;43.060;25.624;2022-07-29T02:23:17;18.50;99.90
63802;DHT22;49949;43.060;25.624;2022-07-29T02:25:45;18.50;99.90
63802;DHT22;49949;43.060;25.624;2022-07-29T02:28:13;18.50;99.90
63802;DHT22;49949;43.060;25.624;2022-07-29T02:30:41;18.50;99.90
63802;DHT22;49949;43.060;25.624;2022-07-29T02:33:09;18.40;99.90
63802;DHT22;49949;43.060;25.624;2022-07-29T02:35:36;18.30;99.90
63802;DHT22;49949;43.060;25.624;2022-07-29T02:38:03;18.30;99.90
63802;DHT22;49949;43.060;25.624;2022-07-29T02:40:48;18.30;99.90
63802;DHT22;49949;43.060;25.624;2022-07-29T02:43:17;18.20;99.90
63802;DHT22;49949;43.060;25.624;2022-07-29T02:45:45;18.20;99.90
63802;DHT22;49949;43.060;25.624;2022-07-29T02:48:15;18.20;99.90
63802;DHT22;49949;43.060;25.624;2022-07-29T02:50:50;18.20;99.90
63802;DHT22;49949;43.060;25.624;2022-07-29T02:53:24;18.30;99.90
63802;DHT22;49949;43.060;25.624;2022-07-29T02:55:59;18.30;99.90
63802;DHT22;49949;43.060;25.624;2022-07-29T02:58:29;18.40;99.90
63802;DHT22;49949;43.060;25.624;2022-07-29T03:01:08;18.40;99.90
63802;DHT22;49949;43.060;25.624;2022-07-29T03:03:37;18.40;99.90
63802;DHT22;49949;43.060;25.624;2022-07-29T03:06:04;18.30;99.90
63802;DHT22;49949;43.060;25.624;2022-07-29T03:08:31;18.20;99.90
63802;DHT22;49949;43.060;25.624;2022-07-29T03:10:58;18.20;99.90
63802;DHT22;49949;43.060;25.624;2022-07-29T03:13:25;18.20;99.90
63802;DHT22;49949;43.060;25.624;2022-07-29T03:15:52;18.20;99.90
63802;DHT22;49949;43.060;25.624;2022-07-29T03:18:19;18.20;99.90
63802;DHT22;49949;43.060;25.624;2022-07-29T03:20:45;18.20;99.90
63802;DHT22;49949;43.060;25.624;2022-07-29T03:23:10;18.20;99.90
63802;DHT22;49949;43.060;25.624;2022-07-29T03:25:36;18.20;99.90
63802;DHT22;49949;43.060;25.624;2022-07-29T03:28:02;18.10;99.90
63802;DHT22;49949;43.060;25.624;2022-07-29T03:30:28;18.20;99.90
63802;DHT22;49949;43.060;25.624;2022-07-29T03:32:56;18.10;99.90
63802;DHT22;49949;43.060;25.624;2022-07-29T03:35:21;18.10;99.90
63802;DHT22;49949;43.060;25.624;2022-07-29T03:37:48;18.10;99.90
63802;DHT22;49949;43.060;25.624;2022-07-29T03:40:19;18.10;99.90
63802;DHT22;49949;43.060;25.624;2022-07-29T03:42:48;18.10;99.90
63802;DHT22;49949;43.060;25.624;2022-07-29T03:45:17;18.20;99.90
63802;DHT22;49949;43.060;25.624;2022-07-29T03:47:58;18.50;99.90
63802;DHT22;49949;43.060;25.624;2022-07-29T03:50:25;18.70;99.90
63802;DHT22;49949;43.060;25.624;2022-07-29T03:52:50;19.00;99.90
63802;DHT22;49949;43.060;25.624;2022-07-29T03:55:16;19.30;99.90
63802;DHT22;49949;43.060;25.624;2022-07-29T03:57:44;19.30;99.90
63802;DHT22;49949;43.060;25.624;2022-07-29T04:00:11;19.70;99.90
63802;DHT22;49949;43.060;25.624;2022-07-29T04:02:38;20.00;99.90
63802;DHT22;49949;43.060;25.624;2022-07-29T04:05:05;20.10;99.90
63802;DHT22;49949;43.060;25.624;2022-07-29T04:07:30;20.10;99.90
63802;DHT22;49949;43.060;25.624;2022-07-29T04:09:56;20.00;99.90
63802;DHT22;49949;43.060;25.624;2022-07-29T04:12:22;19.80;99.90
63802;DHT22;49949;43.060;25.624;2022-07-29T04:14:48;19.60;99.90
63802;DHT22;49949;43.060;25.624;2022-07-29T04:17:14;19.30;99.90
63802;DHT22;49949;43.060;25.624;2022-07-29T04:19:39;19.30;99.90
63802;DHT22;49949;43.060;25.624;2022-07-29T04:22:05;19.20;99.90
63802;DHT22;49949;43.060;25.624;2022-07-29T04:24:31;19.10;99.90
63802;DHT22;49949;43.060;25.624;2022-07-29T04:26:56;19.10;99.90
63802;DHT22;49949;43.060;25.624;2022-07-29T04:29:22;19.30;99.90
63802;DHT22;49949;43.060;25.624;2022-07-29T04:31:48;19.70;99.90
63802;DHT22;49949;43.060;25.624;2022-07-29T04:34:14;20.00;99.90
63802;DHT22;49949;43.060;25.624;2022-07-29T04:36:40;20.40;99.90
63802;DHT22;49949;43.060;25.624;2022-07-29T04:39:06;20.70;99.90
63802;DHT22;49949;43.060;25.624;2022-07-29T04:41:32;21.10;99.90
63802;DHT22;49949;43.060;25.624;2022-07-29T04:43:57;21.40;99.90
63802;DHT22;49949;43.060;25.624;2022-07-29T04:46:26;21.90;99.90
63802;DHT22;49949;43.060;25.624;2022-07-29T04:48:51;22.20;99.90
63802;DHT22;49949;43.060;25.624;2022-07-29T04:51:17;22.60;99.90
63802;DHT22;49949;43.060;25.624;2022-07-29T04:53:43;22.90;99.90
63802;DHT22;49949;43.060;25.624;2022-07-29T04:56:08;23.30;99.90
63802;DHT22;49949;43.060;25.624;2022-07-29T04:58:35;23.50;99.90
63802;DHT22;49949;43.060;25.624;2022-07-29T05:01:01;23.80;99.90
63802;DHT22;49949;43.060;25.624;2022-07-29T05:03:27;24.10;99.90
63802;DHT22;49949;43.060;25.624;2022-07-29T05:05:52;23.90;99.90
63802;DHT22;49949;43.060;25.624;2022-07-29T05:08:18;23.60;99.90
63802;DHT22;49949;43.060;25.624;2022-07-29T05:10:44;23.50;99.90
63802;DHT22;49949;43.060;25.624;2022-07-29T05:13:10;23.60;99.90
63802;DHT22;49949;43.060;25.624;2022-07-29T05:15:36;23.70;99.90
63802;DHT22;49949;43.060;25.624;2022-07-29T05:18:03;23.50;99.90
63802;DHT22;49949;43.060;25.624;2022-07-29T05:20:30;23.30;99.90
63802;DHT22;49949;43.060;25.624;2022-07-29T05:23:00;23.50;99.90
63802;DHT22;49949;43.060;25.624;2022-07-29T05:25:27;23.70;99.90
63802;DHT22;49949;43.060;25.624;2022-07-29T05:27:53;23.80;99.90
63802;DHT22;49949;43.060;25.624;2022-07-29T05:30:20;24.10;99.90
63802;DHT22;49949;43.060;25.624;2022-07-29T05:32:46;24.40;99.90
63802;DHT22;49949;43.060;25.624;2022-07-29T05:35:13;24.70;99.90
63802;DHT22;49949;43.060;25.624;2022-07-29T05:37:39;25.10;99.90
63802;DHT22;49949;43.060;25.624;2022-07-29T05:40:06;25.20;99.90
63802;DHT22;49949;43.060;25.624;2022-07-29T05:42:32;25.00;99.90
63802;DHT22;49949;43.060;25.624;2022-07-29T05:44:57;25.00;99.90
63802;DHT22;49949;43.060;25.624;2022-07-29T05:47:23;25.10;99.90
63802;DHT22;49949;43.060;25.624;2022-07-29T05:49:49;25.00;99.90
63802;DHT22;49949;43.060;25.624;2022-07-29T05:52:16;24.90;99.90
63802;DHT22;49949;43.060;25.624;2022-07-29T05:54:42;25.00;99.90
63802;DHT22;49949;43.060;25.624;2022-07-29T05:57:14;25.20;99.90
63802;DHT22;49949;43.060;25.624;2022-07-29T05:59:40;25.30;99.90
63802;DHT22;49949;43.060;25.624;2022-07-29T06:02:06;25.50;99.90
63802;DHT22;49949;43.060;25.624;2022-07-29T06:04:32;25.70;99.90
63802;DHT22;49949;43.060;25.624;2022-07-29T06:06:58;25.80;99.90
63802;DHT22;49949;43.060;25.624;2022-07-29T06:09:24;25.70;99.90
63802;DHT22;49949;43.060;25.624;2022-07-29T06:11:51;25.60;99.40
63802;DHT22;49949;43.060;25.624;2022-07-29T06:14:18;25.70;99.90
63802;DHT22;49949;43.060;25.624;2022-07-29T06:16:44;25.80;99.90
63802;DHT22;49949;43.060;25.624;2022-07-29T06:19:09;26.00;99.20
63802;DHT22;49949;43.060;25.624;2022-07-29T06:21:35;26.20;98.10
63802;DHT22;49949;43.060;25.624;2022-07-29T06:24:01;26.30;95.80
63802;DHT22;49949;43.060;25.624;2022-07-29T06:26:27;26.30;96.30
63802;DHT22;49949;43.060;25.624;2022-07-29T06:28:53;26.60;95.50
63802;DHT22;49949;43.060;25.624;2022-07-29T06:31:18;26.90;93.40
63802;DHT22;49949;43.060;25.624;2022-07-29T06:33:44;27.10;90.10
63802;DHT22;49949;43.060;25.624;2022-07-29T06:36:10;27.10;90.40
63802;DHT22;49949;43.060;25.624;2022-07-29T06:38:36;27.20;91.60
63802;DHT22;49949;43.060;25.624;2022-07-29T06:41:03;27.50;89.30
63802;DHT22;49949;43.060;25.624;2022-07-29T06:46:06;27.60;85.10
63802;DHT22;49949;43.060;25.624;2022-07-29T06:48:33;27.40;85.00
63802;DHT22;49949;43.060;25.624;2022-07-29T06:51:00;27.30;84.80
63802;DHT22;49949;43.060;25.624;2022-07-29T06:53:26;27.40;84.90
63802;DHT22;49949;43.060;25.624;2022-07-29T06:55:52;27.50;83.20
63802;DHT22;49949;43.060;25.624;2022-07-29T06:58:18;27.60;82.60
63802;DHT22;49949;43.060;25.624;2022-07-29T07:00:46;27.70;78.50
63802;DHT22;49949;43.060;25.624;2022-07-29T07:03:13;27.50;79.70
63802;DHT22;49949;43.060;25.624;2022-07-29T07:05:39;27.40;78.60
63802;DHT22;49949;43.060;25.624;2022-07-29T07:08:05;27.50;78.00
63802;DHT22;49949;43.060;25.624;2022-07-29T07:10:31;27.60;80.30
63802;DHT22;49949;43.060;25.624;2022-07-29T07:12:57;28.00;75.70
63802;DHT22;49949;43.060;25.624;2022-07-29T07:15:23;28.20;76.70
63802;DHT22;49949;43.060;25.624;2022-07-29T07:17:49;28.20;74.40
63802;DHT22;49949;43.060;25.624;2022-07-29T07:20:18;28.30;76.00
63802;DHT22;49949;43.060;25.624;2022-07-29T07:22:44;28.40;72.30
63802;DHT22;49949;43.060;25.624;2022-07-29T07:25:11;28.60;74.40
63802;DHT22;49949;43.060;25.624;2022-07-29T07:27:37;29.10;72.50
63802;DHT22;49949;43.060;25.624;2022-07-29T07:30:05;29.50;67.80
63802;DHT22;49949;43.060;25.624;2022-07-29T07:32:34;29.80;66.20
63802;DHT22;49949;43.060;25.624;2022-07-29T07:35:01;29.80;67.20
63802;DHT22;49949;43.060;25.624;2022-07-29T07:37:27;29.90;65.10
63802;DHT22;49949;43.060;25.624;2022-07-29T07:39:53;29.80;66.30
63802;DHT22;49949;43.060;25.624;2022-07-29T07:42:19;29.80;62.50
63802;DHT22;49949;43.060;25.624;2022-07-29T07:44:45;29.80;60.50
63802;DHT22;49949;43.060;25.624;2022-07-29T07:47:11;30.00;59.30
63802;DHT22;49949;43.060;25.624;2022-07-29T07:49:38;30.10;53.70
63802;DHT22;49949;43.060;25.624;2022-07-29T07:52:04;30.10;55.10
63802;DHT22;49949;43.060;25.624;2022-07-29T07:54:30;30.00;52.50
63802;DHT22;49949;43.060;25.624;2022-07-29T07:56:56;30.10;52.70
63802;DHT22;49949;43.060;25.624;2022-07-29T07:59:22;30.20;52.50
63802;DHT22;49949;43.060;25.624;2022-07-29T08:01:48;30.20;53.50
63802;DHT22;49949;43.060;25.624;2022-07-29T08:04:14;30.50;49.30
63802;DHT22;49949;43.060;25.624;2022-07-29T08:06:40;30.60;50.50
63802;DHT22;49949;43.060;25.624;2022-07-29T08:09:05;30.40;50.20
63802;DHT22;49949;43.060;25.624;2022-07-29T08:11:31;30.40;49.70
63802;DHT22;49949;43.060;25.624;2022-07-29T08:13:57;30.70;49.30
63802;DHT22;49949;43.060;25.624;2022-07-29T08:16:23;30.70;49.60
63802;DHT22;49949;43.060;25.624;2022-07-29T08:18:51;30.90;50.80
63802;DHT22;49949;43.060;25.624;2022-07-29T08:21:17;31.10;49.80
63802;DHT22;49949;43.060;25.624;2022-07-29T08:23:44;31.10;50.20
63802;DHT22;49949;43.060;25.624;2022-07-29T08:26:19;31.10;49.20
63802;DHT22;49949;43.060;25.624;2022-07-29T08:28:46;31.50;49.70
63802;DHT22;49949;43.060;25.624;2022-07-29T08:31:15;32.00;47.70
63802;DHT22;49949;43.060;25.624;2022-07-29T08:33:41;32.20;46.70
63802;DHT22;49949;43.060;25.624;2022-07-29T08:36:07;32.60;45.40
63802;DHT22;49949;43.060;25.624;2022-07-29T08:38:33;32.80;42.60
63802;DHT22;49949;43.060;25.624;2022-07-29T08:41:02;32.90;43.30
63802;DHT22;49949;43.060;25.624;2022-07-29T08:43:28;33.00;43.20
63802;DHT22;49949;43.060;25.624;2022-07-29T08:45:54;33.10;42.20
63802;DHT22;49949;43.060;25.624;2022-07-29T08:48:22;33.10;40.70
63802;DHT22;49949;43.060;25.624;2022-07-29T08:50:52;33.20;41.10
63802;DHT22;49949;43.060;25.624;2022-07-29T08:53:21;33.30;42.20
63802;DHT22;49949;43.060;25.624;2022-07-29T08:55:49;33.70;41.90
63802;DHT22;49949;43.060;25.624;2022-07-29T08:58:16;33.80;42.20
63802;DHT22;49949;43.060;25.624;2022-07-29T09:00:50;34.10;39.90
63802;DHT22;49949;43.060;25.624;2022-07-29T09:03:19;34.20;38.70
63802;DHT22;49949;43.060;25.624;2022-07-29T09:05:46;34.30;38.20
63802;DHT22;49949;43.060;25.624;2022-07-29T09:08:13;34.50;38.40
63802;DHT22;49949;43.060;25.624;2022-07-29T09:10:40;34.70;38.10
63802;DHT22;49949;43.060;25.624;2022-07-29T09:13:05;34.10;38.90
63802;DHT22;49949;43.060;25.624;2022-07-29T09:15:32;33.30;40.80
63802;DHT22;49949;43.060;25.624;2022-07-29T09:17:58;33.20;40.90
63802;DHT22;49949;43.060;25.624;2022-07-29T09:20:26;33.40;41.60
63802;DHT22;49949;43.060;25.624;2022-07-29T09:23:12;33.80;39.50
63802;DHT22;49949;43.060;25.624;2022-07-29T09:25:39;34.30;38.20
63802;DHT22;49949;43.060;25.624;2022-07-29T09:28:16;34.70;37.90
63802;DHT22;49949;43.060;25.624;2022-07-29T09:30:56;34.70;37.40
63802;DHT22;49949;43.060;25.624;2022-07-29T09:33:22;34.80;37.90
63802;DHT22;49949;43.060;25.624;2022-07-29T09:36:04;35.00;36.70
63802;DHT22;49949;43.060;25.624;2022-07-29T09:38:31;35.30;36.10
63802;DHT22;49949;43.060;25.624;2022-07-29T09:40:58;35.40;35.90
63802;DHT22;49949;43.060;25.624;2022-07-29T09:43:24;35.70;35.70
63802;DHT22;49949;43.060;25.624;2022-07-29T09:45:50;35.90;33.90
63802;DHT22;49949;43.060;25.624;2022-07-29T09:48:18;35.60;34.30
63802;DHT22;49949;43.060;25.624;2022-07-29T09:50:45;35.50;35.30
63802;DHT22;49949;43.060;25.624;2022-07-29T09:53:12;35.60;33.60
63802;DHT22;49949;43.060;25.624;2022-07-29T09:55:54;35.60;33.40
63802;DHT22;49949;43.060;25.624;2022-07-29T09:58:21;35.60;34.00
63802;DHT22;49949;43.060;25.624;2022-07-29T10:00:49;35.60;35.70
63802;DHT22;49949;43.060;25.624;2022-07-29T10:03:15;35.80;34.30
63802;DHT22;49949;43.060;25.624;2022-07-29T10:05:42;36.00;34.10
63802;DHT22;49949;43.060;25.624;2022-07-29T10:08:09;36.10;32.80
63802;DHT22;49949;43.060;25.624;2022-07-29T10:10:38;36.00;33.60
63802;DHT22;49949;43.060;25.624;2022-07-29T10:13:07;36.10;34.40
63802;DHT22;49949;43.060;25.624;2022-07-29T10:15:35;36.30;33.30
63802;DHT22;49949;43.060;25.624;2022-07-29T10:18:07;36.60;32.60
63802;DHT22;49949;43.060;25.624;2022-07-29T10:20:34;36.40;32.60
63802;DHT22;49949;43.060;25.624;2022-07-29T10:23:00;36.40;32.70
63802;DHT22;49949;43.060;25.624;2022-07-29T10:25:26;36.30;33.90
63802;DHT22;49949;43.060;25.624;2022-07-29T10:27:53;36.40;33.90
63802;DHT22;49949;43.060;25.624;2022-07-29T10:30:23;36.40;32.30
63802;DHT22;49949;43.060;25.624;2022-07-29T10:44:23;35.00;37.20
63802;DHT22;49949;43.060;25.624;2022-07-29T10:46:49;35.00;36.50
63802;DHT22;49949;43.060;25.624;2022-07-29T11:05:07;35.60;35.80
63802;DHT22;49949;43.060;25.624;2022-07-29T11:07:35;35.80;35.30
63802;DHT22;49949;43.060;25.624;2022-07-29T11:15:22;34.20;37.10
63802;DHT22;49949;43.060;25.624;2022-07-29T11:23:28;34.60;37.20
63802;DHT22;49949;43.060;25.624;2022-07-29T11:26:13;34.90;37.80
63802;DHT22;49949;43.060;25.624;2022-07-29T11:31:41;35.60;35.80
63802;DHT22;49949;43.060;25.624;2022-07-29T11:34:28;35.90;34.80
63802;DHT22;49949;43.060;25.624;2022-07-29T11:45:04;35.90;31.40
63802;DHT22;49949;43.060;25.624;2022-07-29T11:47:33;35.60;32.00
63802;DHT22;49949;43.060;25.624;2022-07-29T11:50:01;35.50;33.80
63802;DHT22;49949;43.060;25.624;2022-07-29T11:52:47;35.30;34.00
63802;DHT22;49949;43.060;25.624;2022-07-29T11:55:20;35.20;35.00
63802;DHT22;49949;43.060;25.624;2022-07-29T11:57:59;34.80;34.80
63802;DHT22;49949;43.060;25.624;2022-07-29T12:00:41;34.70;35.40
63802;DHT22;49949;43.060;25.624;2022-07-29T12:03:10;35.00;35.60
63802;DHT22;49949;43.060;25.624;2022-07-29T12:05:40;35.50;34.30
63802;DHT22;49949;43.060;25.624;2022-07-29T12:08:07;35.50;33.90
63802;DHT22;49949;43.060;25.624;2022-07-29T12:10:33;35.40;34.10
63802;DHT22;49949;43.060;25.624;2022-07-29T12:12:59;35.30;36.10
63802;DHT22;49949;43.060;25.624;2022-07-29T12:15:25;35.10;35.50
63802;DHT22;49949;43.060;25.624;2022-07-29T12:17:51;35.00;36.60
63802;DHT22;49949;43.060;25.624;2022-07-29T12:20:29;35.10;36.90
63802;DHT22;49949;43.060;25.624;2022-07-29T12:22:56;35.30;35.80
63802;DHT22;49949;43.060;25.624;2022-07-29T12:25:23;35.30;36.20
63802;DHT22;49949;43.060;25.624;2022-07-29T12:28:00;35.10;36.70
63802;DHT22;49949;43.060;25.624;2022-07-29T12:30:35;35.30;34.90
63802;DHT22;49949;43.060;25.624;2022-07-29T12:33:11;35.40;36.10
63802;DHT22;49949;43.060;25.624;2022-07-29T12:35:36;35.60;35.10
63802;DHT22;49949;43.060;25.624;2022-07-29T12:38:02;35.80;34.10
63802;DHT22;49949;43.060;25.624;2022-07-29T12:40:28;35.80;33.40
63802;DHT22;49949;43.060;25.624;2022-07-29T12:43:14;35.90;34.30
63802;DHT22;49949;43.060;25.624;2022-07-29T12:45:42;35.90;33.60
63802;DHT22;49949;43.060;25.624;2022-07-29T12:48:09;35.60;35.40
63802;DHT22;49949;43.060;25.624;2022-07-29T12:50:55;35.50;36.10
63802;DHT22;49949;43.060;25.624;2022-07-29T12:53:21;35.30;35.90
63802;DHT22;49949;43.060;25.624;2022-07-29T12:55:49;35.20;35.40
63802;DHT22;49949;43.060;25.624;2022-07-29T12:58:46;35.10;35.70
63802;DHT22;49949;43.060;25.624;2022-07-29T13:01:18;35.20;35.30
63802;DHT22;49949;43.060;25.624;2022-07-29T13:03:57;35.50;35.80
63802;DHT22;49949;43.060;25.624;2022-07-29T13:06:33;35.70;33.90
63802;DHT22;49949;43.060;25.624;2022-07-29T13:09:02;35.60;33.50
63802;DHT22;49949;43.060;25.624;2022-07-29T13:13:58;35.20;35.00
63802;DHT22;49949;43.060;25.624;2022-07-29T13:16:23;35.30;35.10
63802;DHT22;49949;43.060;25.624;2022-07-29T13:19:03;35.60;34.10
63802;DHT22;49949;43.060;25.624;2022-07-29T13:21:29;35.90;32.90
63802;DHT22;49949;43.060;25.624;2022-07-29T13:23:55;35.70;32.00
63802;DHT22;49949;43.060;25.624;2022-07-29T13:26:20;35.70;33.60
63802;DHT22;49949;43.060;25.624;2022-07-29T13:28:46;35.80;34.20
63802;DHT22;49949;43.060;25.624;2022-07-29T13:31:12;35.90;32.70
63802;DHT22;49949;43.060;25.624;2022-07-29T13:33:37;36.00;32.90
63802;DHT22;49949;43.060;25.624;2022-07-29T13:36:03;36.10;32.60
63802;DHT22;49949;43.060;25.624;2022-07-29T13:38:29;36.20;32.30
63802;DHT22;49949;43.060;25.624;2022-07-29T13:40:54;36.30;32.10
63802;DHT22;49949;43.060;25.624;2022-07-29T13:43:20;36.40;31.70
63802;DHT22;49949;43.060;25.624;2022-07-29T13:45:46;36.10;32.60
63802;DHT22;49949;43.060;25.624;2022-07-29T13:48:11;35.90;32.70
63802;DHT22;49949;43.060;25.624;2022-07-29T13:50:37;35.90;33.00
63802;DHT22;49949;43.060;25.624;2022-07-29T13:53:03;35.80;32.90
63802;DHT22;49949;43.060;25.624;2022-07-29T13:55:29;36.00;33.60
63802;DHT22;49949;43.060;25.624;2022-07-29T13:57:55;35.90;33.50
63802;DHT22;49949;43.060;25.624;2022-07-29T14:00:20;35.90;34.00
63802;DHT22;49949;43.060;25.624;2022-07-29T14:02:46;35.60;34.30
63802;DHT22;49949;43.060;25.624;2022-07-29T14:05:12;35.70;33.00
63802;DHT22;49949;43.060;25.624;2022-07-29T14:07:38;35.80;32.50
63802;DHT22;49949;43.060;25.624;2022-07-29T14:10:04;36.00;32.30
63802;DHT22;49949;43.060;25.624;2022-07-29T14:12:30;36.10;32.10
63802;DHT22;49949;43.060;25.624;2022-07-29T14:14:56;36.20;31.30
63802;DHT22;49949;43.060;25.624;2022-07-29T14:17:22;36.30;31.80
63802;DHT22;49949;43.060;25.624;2022-07-29T14:19:48;36.10;31.40
63802;DHT22;49949;43.060;25.624;2022-07-29T14:22:14;35.80;31.60
63802;DHT22;49949;43.060;25.624;2022-07-29T14:24:39;35.70;32.60
63802;DHT22;49949;43.060;25.624;2022-07-29T14:27:06;35.80;33.10
63802;DHT22;49949;43.060;25.624;2022-07-29T14:29:32;35.90;32.90
63802;DHT22;49949;43.060;25.624;2022-07-29T14:31:58;35.90;31.60
63802;DHT22;49949;43.060;25.624;2022-07-29T14:34:24;35.80;32.20
63802;DHT22;49949;43.060;25.624;2022-07-29T14:36:50;35.80;31.80
63802;DHT22;49949;43.060;25.624;2022-07-29T14:39:15;35.80;32.60
63802;DHT22;49949;43.060;25.624;2022-07-29T14:41:42;35.90;32.10
63802;DHT22;49949;43.060;25.624;2022-07-29T14:44:08;35.80;31.70
63802;DHT22;49949;43.060;25.624;2022-07-29T14:46:34;35.60;32.90
63802;DHT22;49949;43.060;25.624;2022-07-29T14:49:00;35.60;32.60
63802;DHT22;49949;43.060;25.624;2022-07-29T14:51:25;35.60;33.10
63802;DHT22;49949;43.060;25.624;2022-07-29T14:53:51;35.60;32.30
63802;DHT22;49949;43.060;25.624;2022-07-29T14:56:17;35.60;33.20
63802;DHT22;49949;43.060;25.624;2022-07-29T14:58:43;35.60;33.30
63802;DHT22;49949;43.060;25.624;2022-07-29T15:01:09;35.60;33.20
63802;DHT22;49949;43.060;25.624;2022-07-29T15:03:34;35.60;32.50
63802;DHT22;49949;43.060;25.624;2022-07-29T15:06:00;35.40;33.40
63802;DHT22;49949;43.060;25.624;2022-07-29T15:08:26;35.30;33.50
63802;DHT22;49949;43.060;25.624;2022-07-29T15:10:53;35.30;34.60
63802;DHT22;49949;43.060;25.624;2022-07-29T15:13:19;35.30;33.60
63802;DHT22;49949;43.060;25.624;2022-07-29T15:15:45;35.50;34.30
63802;DHT22;49949;43.060;25.624;2022-07-29T15:18:11;35.20;35.30
63802;DHT22;49949;43.060;25.624;2022-07-29T15:20:36;35.00;36.10
63802;DHT22;49949;43.060;25.624;2022-07-29T15:23:02;34.80;35.20
63802;DHT22;49949;43.060;25.624;2022-07-29T15:25:28;34.70;35.70
63802;DHT22;49949;43.060;25.624;2022-07-29T15:27:54;34.60;36.10
63802;DHT22;49949;43.060;25.624;2022-07-29T15:30:20;34.40;36.50
63802;DHT22;49949;43.060;25.624;2022-07-29T15:32:46;34.40;37.10
63802;DHT22;49949;43.060;25.624;2022-07-29T15:35:11;34.50;36.90
63802;DHT22;49949;43.060;25.624;2022-07-29T15:37:38;34.40;37.30
63802;DHT22;49949;43.060;25.624;2022-07-29T15:40:07;34.30;37.40
63802;DHT22;49949;43.060;25.624;2022-07-29T15:42:35;34.30;38.10
63802;DHT22;49949;43.060;25.624;2022-07-29T15:45:01;34.20;37.60
63802;DHT22;49949;43.060;25.624;2022-07-29T15:47:28;34.10;37.90
63802;DHT22;49949;43.060;25.624;2022-07-29T15:49:54;34.10;38.20
63802;DHT22;49949;43.060;25.624;2022-07-29T15:52:20;33.90;37.90
63802;DHT22;49949;43.060;25.624;2022-07-29T15:54:46;33.90;38.10
63802;DHT22;49949;43.060;25.624;2022-07-29T15:57:12;33.90;38.20
63802;DHT22;49949;43.060;25.624;2022-07-29T15:59:37;33.80;38.20
63802;DHT22;49949;43.060;25.624;2022-07-29T16:02:04;33.70;38.60
63802;DHT22;49949;43.060;25.624;2022-07-29T16:04:30;33.60;39.00
63802;DHT22;49949;43.060;25.624;2022-07-29T16:06:56;33.60;39.30
63802;DHT22;49949;43.060;25.624;2022-07-29T16:09:23;33.60;39.60
63802;DHT22;49949;43.060;25.624;2022-07-29T16:11:48;33.50;39.60
63802;DHT22;49949;43.060;25.624;2022-07-29T16:14:18;33.40;39.50
63802;DHT22;49949;43.060;25.624;2022-07-29T16:16:43;33.30;40.10
63802;DHT22;49949;43.060;25.624;2022-07-29T16:19:09;33.30;40.50
63802;DHT22;49949;43.060;25.624;2022-07-29T16:21:36;33.20;41.00
63802;DHT22;49949;43.060;25.624;2022-07-29T16:24:03;33.20;41.20
63802;DHT22;49949;43.060;25.624;2022-07-29T16:26:29;33.10;41.40